Soleil Laural Canyon Historical Data
Daily Summary for February 13, 2018 Units:  English    Metric   Both
Daily Weekly Monthly Yearly Custom
  High: Low: Average:
Temperature: 32.3 °F 7.2 °F 21 °F
Dew Point: 20.7 °F 1.7 °F 12.7 °F
Humidity: 82% 56% 71%
Wind Speed: 16.1mph 0.0mph 5.9mph
Wind Gust: 24.2mph - -
Wind- - South
Pressure: 30.68 in 30.09 in -
Precipitation: 0.00 in    
Historical Graphs
 
 
Tabular Data for February 13, 2018
Time Temperature Dew Point Pressure Wind Wind Speed Wind Gust Humidity Rainfall Rate (Hourly) solar
00:03 8.1 °F 2.4 °F 30.67 in SSW 1.2 mph 2.3 mph 77% 0.00 in 0.0 W/m2
00:08 8.0 °F 2.3 °F 30.68 in Calm     77% 0.00 in 0.0 W/m2
00:13 8.1 °F 2.4 °F 30.68 in SSW 0.7 mph 1.2 mph 77% 0.00 in 0.0 W/m2
00:18 8.0 °F 2.3 °F 30.68 in Calm     77% 0.00 in 0.0 W/m2
00:23 8.2 °F 2.2 °F 30.68 in SSW 1.4 mph 2.4 mph 76% 0.00 in 0.0 W/m2
00:28 8.3 °F 2.0 °F 30.68 in SSW 0.7 mph 1.2 mph 75% 0.00 in 0.0 W/m2
00:33 8.3 °F 2.3 °F 30.68 in SSW 0.4 mph 1.2 mph 76% 0.00 in 0.0 W/m2
00:38 8.3 °F 2.3 °F 30.67 in Calm   1.2 mph 76% 0.00 in 0.0 W/m2
00:43 8.3 °F 2.3 °F 30.67 in SSW 0.6 mph 1.2 mph 76% 0.00 in 0.0 W/m2
00:49 8.1 °F 1.8 °F 30.67 in SSW 0.2 mph 2.3 mph 75% 0.00 in 0.0 W/m2
00:54 8.0 °F 2.0 °F 30.67 in Calm     76% 0.00 in 0.0 W/m2
00:59 8.0 °F 2.0 °F 30.67 in Calm     76% 0.00 in 0.0 W/m2
01:04 8.0 °F 2.0 °F 30.66 in Calm     76% 0.00 in 0.0 W/m2
01:09 8.1 °F 2.1 °F 30.66 in SSW 1.2 mph 1.2 mph 76% 0.00 in 0.0 W/m2
01:14 8.1 °F 2.1 °F 30.66 in Calm     76% 0.00 in 0.0 W/m2
01:19 8.1 °F 2.4 °F 30.66 in Calm     77% 0.00 in 0.0 W/m2
01:24 8.1 °F 2.4 °F 30.66 in SSW 0.2 mph 1.2 mph 77% 0.00 in 0.0 W/m2
01:29 8.1 °F 2.4 °F 30.66 in Calm     77% 0.00 in 0.0 W/m2
01:34 8.1 °F 2.4 °F 30.66 in Calm     77% 0.00 in 0.0 W/m2
01:39 8.0 °F 2.3 °F 30.66 in Calm   1.2 mph 77% 0.00 in 0.0 W/m2
01:44 7.9 °F 2.2 °F 30.67 in SSW 0.2 mph 1.2 mph 77% 0.00 in 0.0 W/m2
01:49 7.8 °F 2.1 °F 30.67 in Calm     77% 0.00 in 0.0 W/m2
01:54 7.7 °F 2.0 °F 30.66 in Calm     77% 0.00 in 0.0 W/m2
02:00 7.6 °F 1.9 °F 30.67 in SSW 0.6 mph 1.2 mph 77% 0.00 in 0.0 W/m2
02:05 7.4 °F 1.7 °F 30.67 in Calm     77% 0.00 in 0.0 W/m2
02:10 7.3 °F 1.9 °F 30.67 in Calm     78% 0.00 in 0.0 W/m2
02:15 7.2 °F 1.8 °F 30.67 in Calm     78% 0.00 in 0.0 W/m2
02:20 7.2 °F 1.8 °F 30.67 in SSW 0.8 mph 1.2 mph 78% 0.00 in 0.0 W/m2
02:25 7.2 °F 1.8 °F 30.66 in SSW 0.6 mph 1.2 mph 78% 0.00 in 0.0 W/m2
02:30 7.2 °F 1.8 °F 30.67 in SSW 1.0 mph 2.3 mph 78% 0.00 in 0.0 W/m2
02:35 7.2 °F 1.8 °F 30.66 in SSW 1.5 mph 2.4 mph 78% 0.00 in 0.0 W/m2
02:40 7.2 °F 1.8 °F 30.66 in SSW 0.6 mph 1.2 mph 78% 0.00 in 0.0 W/m2
02:46 7.2 °F 1.8 °F 30.66 in Calm   1.2 mph 78% 0.00 in 0.0 W/m2
02:51 7.2 °F 1.8 °F 30.65 in Calm     78% 0.00 in 0.0 W/m2
02:56 7.3 °F 2.2 °F 30.65 in Calm     79% 0.00 in 0.0 W/m2
03:01 7.3 °F 2.2 °F 30.65 in SSW 0.8 mph 1.2 mph 79% 0.00 in 0.0 W/m2
03:06 7.5 °F 2.3 °F 30.65 in SSW 0.5 mph 1.2 mph 79% 0.00 in 0.0 W/m2
03:11 7.7 °F 2.3 °F 30.65 in SSW 0.1 mph 1.2 mph 78% 0.00 in 0.0 W/m2
03:16 7.7 °F 2.3 °F 30.65 in Calm   1.2 mph 78% 0.00 in 0.0 W/m2
03:21 8.1 °F 2.7 °F 30.65 in SSW 1.1 mph 1.2 mph 78% 0.00 in 0.0 W/m2
03:26 8.2 °F 2.5 °F 30.65 in SSW 1.6 mph 2.3 mph 77% 0.00 in 0.0 W/m2
03:32 8.1 °F 2.1 °F 30.64 in SSW 2.0 mph 2.3 mph 76% 0.00 in 0.0 W/m2
03:37 8.2 °F 2.2 °F 30.64 in SSE 2.0 mph 5.0 mph 76% 0.00 in 0.0 W/m2
03:42 8.3 °F 2.3 °F 30.64 in SSE 1.0 mph 2.0 mph 76% 0.00 in 0.0 W/m2
03:47 8.4 °F 2.4 °F 30.63 in SE 3.0 mph 6.0 mph 76% 0.00 in 0.0 W/m2
03:52 8.5 °F 2.2 °F 30.63 in SE 3.0 mph 6.0 mph 75% 0.00 in 0.0 W/m2
03:57 8.5 °F 2.5 °F 30.63 in SSE 3.7 mph 5.8 mph 76% 0.00 in 0.0 W/m2
04:02 8.5 °F 2.2 °F 30.63 in SE 2.6 mph 5.8 mph 75% 0.00 in 0.0 W/m2
04:07 8.4 °F 2.1 °F 30.63 in SSE 7.8 mph 8.4 mph 75% 0.00 in 0.0 W/m2
04:12 8.5 °F 2.5 °F 30.62 in SE 6.0 mph 6.9 mph 76% 0.00 in 0.0 W/m2
04:17 8.5 °F 2.2 °F 30.62 in SSE 6.3 mph 6.3 mph 75% 0.00 in 0.0 W/m2
04:22 8.5 °F 2.2 °F 30.62 in SSE 2.6 mph 2.6 mph 75% 0.00 in 0.0 W/m2
04:27 8.6 °F 2.6 °F 30.61 in SSE 0.3 mph 1.2 mph 76% 0.00 in 0.0 W/m2
04:32 8.8 °F 2.8 °F 30.61 in SSE 1.6 mph 2.4 mph 76% 0.00 in 0.0 W/m2
04:38 9.0 °F 3.0 °F 30.61 in SSE 2.4 mph 4.6 mph 76% 0.00 in 0.0 W/m2
04:43 9.0 °F 3.0 °F 30.60 in SSE 2.9 mph 4.6 mph 76% 0.00 in 0.0 W/m2
04:48 9.0 °F 3.0 °F 30.60 in SE 1.8 mph 4.6 mph 76% 0.00 in 0.0 W/m2
04:53 9.5 °F 3.2 °F 30.61 in South 2.4 mph 4.6 mph 75% 0.00 in 0.0 W/m2
04:58 9.6 °F 3.3 °F 30.61 in South 4.0 mph 4.6 mph 75% 0.00 in 0.0 W/m2
05:03 9.5 °F 3.2 °F 30.61 in South 1.8 mph 2.4 mph 75% 0.00 in 0.0 W/m2
05:08 9.6 °F 3.6 °F 30.61 in South 1.8 mph 2.4 mph 76% 0.00 in 0.0 W/m2
05:13 9.7 °F 3.7 °F 30.60 in South 3.0 mph 3.5 mph 76% 0.00 in 0.0 W/m2
05:18 9.9 °F 3.8 °F 30.60 in South 2.0 mph 3.5 mph 76% 0.00 in 0.0 W/m2
05:23 10.0 °F 3.9 °F 30.60 in South 1.6 mph 2.4 mph 76% 0.00 in 0.0 W/m2
05:28 10.2 °F 3.8 °F 30.59 in South 1.9 mph 2.3 mph 75% 0.00 in 0.0 W/m2
05:33 10.6 °F 4.2 °F 30.59 in South 2.5 mph 3.5 mph 75% 0.00 in 0.0 W/m2
05:39 10.9 °F 4.2 °F 30.58 in South 1.8 mph 2.4 mph 74% 0.00 in 0.0 W/m2
05:44 11.1 °F 4.1 °F 30.59 in SSE 2.0 mph 2.4 mph 73% 0.00 in 0.0 W/m2
05:49 11.8 °F 4.5 °F 30.59 in SSE 3.9 mph 5.8 mph 72% 0.00 in 0.0 W/m2
05:54 12.4 °F 4.5 °F 30.59 in SSE 2.5 mph 4.6 mph 70% 0.00 in 0.0 W/m2
05:59 12.6 °F 4.3 °F 30.58 in SSE 4.8 mph 6.9 mph 69% 0.00 in 0.0 W/m2
06:04 12.8 °F 4.2 °F 30.58 in SE 6.2 mph 6.9 mph 68% 0.00 in 0.0 W/m2
06:09 12.8 °F 4.2 °F 30.58 in SSE 7.2 mph 7.2 mph 68% 0.00 in 0.0 W/m2
06:14 12.9 °F 4.3 °F 30.58 in SSE 2.4 mph 5.8 mph 68% 0.00 in 0.0 W/m2
06:19 12.9 °F 4.3 °F 30.57 in East 4.6 mph 7.2 mph 68% 0.00 in 0.0 W/m2
06:24 12.9 °F 4.0 °F 30.56 in East 2.1 mph 4.6 mph 67% 0.00 in 0.0 W/m2
06:30 12.9 °F 4.0 °F 30.56 in SE 1.9 mph 4.8 mph 67% 0.00 in 0.0 W/m2
06:35 13.1 °F 4.2 °F 30.57 in South 3.6 mph 4.8 mph 67% 0.00 in 0.0 W/m2
06:40 13.2 °F 4.6 °F 30.57 in SSE 6.0 mph 6.9 mph 68% 0.00 in 0.0 W/m2
06:45 13.2 °F 4.3 °F 30.56 in SE 6.5 mph 6.9 mph 67% 0.00 in 0.0 W/m2
06:50 13.2 °F 4.3 °F 30.56 in SE 3.9 mph 4.6 mph 67% 0.00 in 0.0 W/m2
06:55 13.3 °F 4.4 °F 30.55 in SE 1.8 mph 5.8 mph 67% 0.00 in 0.0 W/m2
07:00 13.4 °F 4.8 °F 30.55 in SSE 2.2 mph 5.8 mph 68% 0.00 in 0.0 W/m2
07:05 13.6 °F 4.7 °F 30.55 in SE 6.4 mph 8.1 mph 67% 0.00 in 0.0 W/m2
07:10 13.5 °F 4.9 °F 30.53 in SSE 5.0 mph 6.9 mph 68% 0.00 in 0.0 W/m2
07:16 13.7 °F 5.1 °F 30.55 in SSE 8.2 mph 8.2 mph 68% 0.00 in 0.0 W/m2
07:21 13.8 °F 5.2 °F 30.55 in SSE 6.2 mph 8.1 mph 68% 0.00 in 5.0 W/m2
07:26 13.9 °F 5.3 °F 30.55 in South 1.6 mph 2.4 mph 68% 0.00 in 12.0 W/m2
07:31 13.9 °F 5.3 °F 30.53 in East 1.9 mph 2.4 mph 68% 0.00 in 18.0 W/m2
07:36 14.0 °F 5.7 °F 30.53 in SE 3.3 mph 4.6 mph 69% 0.00 in 21.0 W/m2
07:41 14.1 °F 5.8 °F 30.53 in SE 2.8 mph 2.8 mph 69% 0.00 in 25.0 W/m2
07:46 14.1 °F 6.1 °F 30.53 in ESE 4.1 mph 4.8 mph 70% 0.00 in 32.0 W/m2
07:51 14.3 °F 6.3 °F 30.52 in SE 5.0 mph 5.0 mph 70% 0.00 in 39.0 W/m2
07:56 14.8 °F 7.1 °F 30.52 in SSE 6.1 mph 7.2 mph 71% 0.00 in 46.0 W/m2
08:02 15.4 °F 7.7 °F 30.51 in SSE 5.2 mph 7.2 mph 71% 0.00 in 65.0 W/m2
08:07 15.8 °F 8.4 °F 30.51 in SSE 3.0 mph 7.0 mph 72% 0.00 in 56.0 W/m2
08:12 16.0 °F 8.6 °F 30.51 in SSE 3.8 mph 5.8 mph 72% 0.00 in 58.0 W/m2
08:17 16.2 °F 9.1 °F 30.51 in SSE 3.8 mph 6.9 mph 73% 0.00 in 67.0 W/m2
08:22 16.6 °F 9.4 °F 30.50 in South 4.0 mph 6.9 mph 73% 0.00 in 72.0 W/m2
08:27 16.8 °F 9.6 °F 30.50 in SSE 3.3 mph 4.6 mph 73% 0.00 in 74.0 W/m2
08:32 17.0 °F 9.8 °F 30.50 in SSE 2.9 mph 6.0 mph 73% 0.00 in 81.0 W/m2
08:37 17.1 °F 9.9 °F 30.50 in SE 6.3 mph 8.1 mph 73% 0.00 in 79.0 W/m2
08:42 17.2 °F 10.3 °F 30.50 in SE 8.4 mph 9.2 mph 74% 0.00 in 72.0 W/m2
08:47 17.5 °F 10.6 °F 30.50 in SE 5.3 mph 6.0 mph 74% 0.00 in 81.0 W/m2
08:52 17.8 °F 10.9 °F 30.50 in SSE 4.7 mph 6.9 mph 74% 0.00 in 95.0 W/m2
08:58 18.1 °F 11.2 °F 30.50 in SSE 7.2 mph 7.2 mph 74% 0.00 in 97.0 W/m2
09:03 18.6 °F 11.7 °F 30.50 in SE 6.2 mph 6.2 mph 74% 0.00 in 97.0 W/m2
09:08 18.9 °F 12.3 °F 30.50 in SE 4.3 mph 4.8 mph 75% 0.00 in 93.0 W/m2
09:13 19.2 °F 12.6 °F 30.50 in SE 7.2 mph 9.2 mph 75% 0.00 in 97.0 W/m2
09:18 19.8 °F 13.2 °F 30.50 in South 8.2 mph 11.5 mph 75% 0.00 in 104.0 W/m2
09:23 20.3 °F 13.3 °F 30.49 in SSE 9.9 mph 12.0 mph 74% 0.00 in 105.0 W/m2
09:28 20.5 °F 13.2 °F 30.48 in South 10.6 mph 11.5 mph 73% 0.00 in 120.0 W/m2
09:33 20.8 °F 13.8 °F 30.48 in SSE 9.0 mph 10.8 mph 74% 0.00 in 125.0 W/m2
09:38 21.0 °F 13.7 °F 30.48 in SSE 12.0 mph 13.2 mph 73% 0.00 in 135.0 W/m2
09:43 21.2 °F 13.6 °F 30.47 in SSE 11.3 mph 15.0 mph 72% 0.00 in 141.0 W/m2
09:49 21.5 °F 13.9 °F 30.47 in South 8.7 mph 10.4 mph 72% 0.00 in 137.0 W/m2
09:54 21.9 °F 13.9 °F 30.47 in South 12.0 mph 16.1 mph 71% 0.00 in 158.0 W/m2
09:59 22.1 °F 13.8 °F 30.46 in SSE 11.8 mph 15.0 mph 70% 0.00 in 162.0 W/m2
10:04 22.3 °F 14.0 °F 30.46 in South 8.6 mph 9.2 mph 70% 0.00 in 153.0 W/m2
10:09 22.2 °F 13.2 °F 30.45 in SSE 10.2 mph 15.0 mph 68% 0.00 in 148.0 W/m2
10:15 22.3 °F 13.3 °F 30.45 in South 11.4 mph 12.7 mph 68% 0.00 in 165.0 W/m2
10:20 22.4 °F 13.1 °F 30.45 in SSW 10.8 mph 15.6 mph 67% 0.00 in 185.0 W/m2
10:25 22.5 °F 13.5 °F 30.45 in SSW 8.0 mph 10.8 mph 68% 0.00 in 181.0 W/m2
10:30 22.6 °F 13.3 °F 30.44 in SE 8.3 mph 9.6 mph 67% 0.00 in 165.0 W/m2
10:35 22.5 °F 13.2 °F 30.44 in South 9.0 mph 12.7 mph 67% 0.00 in 162.0 W/m2
10:40 22.6 °F 13.6 °F 30.44 in SSE 8.8 mph 10.8 mph 68% 0.00 in 171.0 W/m2
10:45 22.7 °F 14.1 °F 30.43 in SSW 7.8 mph 10.4 mph 69% 0.00 in 174.0 W/m2
10:50 22.7 °F 14.1 °F 30.43 in SSE 7.2 mph 8.1 mph 69% 0.00 in 167.0 W/m2
10:55 22.8 °F 14.1 °F 30.43 in SSE 9.3 mph 10.4 mph 69% 0.00 in 172.0 W/m2
11:01 22.5 °F 13.9 °F 30.43 in South 9.5 mph 17.3 mph 69% 0.00 in 183.0 W/m2
11:06 22.4 °F 13.8 °F 30.43 in SSW 7.2 mph 12.0 mph 69% 0.00 in 197.0 W/m2
11:11 22.6 °F 14.3 °F 30.43 in SSW 11.8 mph 14.4 mph 70% 0.00 in 202.0 W/m2
11:16 22.5 °F 14.2 °F 30.43 in South 13.8 mph 18.4 mph 70% 0.00 in 202.0 W/m2
11:21 22.4 °F 14.1 °F 30.42 in South 13.2 mph 16.1 mph 70% 0.00 in 216.0 W/m2
11:26 22.7 °F 14.4 °F 30.42 in South 11.0 mph 11.0 mph 70% 0.00 in 232.0 W/m2
11:31 22.7 °F 14.4 °F 30.42 in South 12.3 mph 16.1 mph 70% 0.00 in 239.0 W/m2
11:36 23.2 °F 14.5 °F 30.41 in South 9.5 mph 13.2 mph 69% 0.00 in 260.0 W/m2
11:41 23.6 °F 14.9 °F 30.41 in SSW 9.4 mph 11.5 mph 69% 0.00 in 311.0 W/m2
11:46 24.1 °F 15.7 °F 30.40 in SSE 8.4 mph 9.6 mph 70% 0.00 in 390.0 W/m2
11:51 24.6 °F 15.9 °F 30.40 in South 10.1 mph 12.7 mph 69% 0.00 in 439.0 W/m2
11:56 25.7 °F 16.3 °F 30.40 in South 9.0 mph 9.6 mph 67% 0.00 in 752.0 W/m2
12:01 25.6 °F 16.2 °F 30.40 in South 11.8 mph 17.3 mph 67% 0.00 in 520.0 W/m2
12:07 26.7 °F 17.2 °F 30.39 in South 7.8 mph 11.5 mph 67% 0.00 in 503.0 W/m2
12:12 26.7 °F 16.9 °F 30.39 in SE 12.4 mph 17.3 mph 66% 0.00 in 712.0 W/m2
12:17 27.0 °F 16.8 °F 30.39 in SE 7.8 mph 15.0 mph 65% 0.00 in 647.0 W/m2
12:22 27.3 °F 17.1 °F 30.39 in SSE 8.9 mph 15.0 mph 65% 0.00 in 422.0 W/m2
12:27 27.3 °F 16.7 °F 30.39 in SSW 9.4 mph 16.8 mph 64% 0.00 in 425.0 W/m2
12:32 26.9 °F 16.3 °F 30.38 in SSW 12.5 mph 16.1 mph 64% 0.00 in 466.0 W/m2
12:37 27.1 °F 16.5 °F 30.38 in SSE 10.6 mph 16.1 mph 64% 0.00 in 415.0 W/m2
12:42 27.5 °F 16.9 °F 30.38 in South 8.3 mph 9.2 mph 64% 0.00 in 455.0 W/m2
12:47 27.9 °F 17.3 °F 30.38 in SSW 6.8 mph 9.6 mph 64% 0.00 in 332.0 W/m2
12:52 28.5 °F 17.5 °F 30.37 in South 7.1 mph 11.5 mph 63% 0.00 in 557.0 W/m2
12:57 29.6 °F 18.9 °F 30.37 in South 6.3 mph 9.6 mph 64% 0.00 in 708.0 W/m2
13:03 29.9 °F 18.1 °F 30.36 in SSW 7.2 mph 12.7 mph 61% 0.00 in 446.0 W/m2
13:08 30.1 °F 17.9 °F 30.36 in SSW 9.5 mph 9.5 mph 60% 0.00 in 464.0 W/m2
13:13 30.4 °F 17.8 °F 30.35 in SW 12.6 mph 12.7 mph 59% 0.00 in 591.0 W/m2
13:18 30.4 °F 17.8 °F 30.35 in South 5.6 mph 9.2 mph 59% 0.00 in 529.0 W/m2
13:23 30.5 °F 18.3 °F 30.35 in South 8.3 mph 8.3 mph 60% 0.00 in 334.0 W/m2
13:28 30.6 °F 18.0 °F 30.35 in SSW 11.5 mph 11.5 mph 59% 0.00 in 311.0 W/m2
13:33 30.4 °F 17.8 °F 30.34 in SSW 11.7 mph 15.0 mph 59% 0.00 in 265.0 W/m2
13:38 30.6 °F 17.6 °F 30.34 in South 13.3 mph 17.3 mph 58% 0.00 in 246.0 W/m2
13:43 30.4 °F 17.4 °F 30.34 in SSW 10.3 mph 10.4 mph 58% 0.00 in 244.0 W/m2
13:48 30.1 °F 17.1 °F 30.34 in SSW 9.8 mph 9.8 mph 58% 0.00 in 297.0 W/m2
13:54 30.4 °F 17.8 °F 30.33 in SW 8.7 mph 10.8 mph 59% 0.00 in 330.0 W/m2
13:59 30.7 °F 18.1 °F 30.33 in South 7.2 mph 10.4 mph 59% 0.00 in 311.0 W/m2
14:04 30.5 °F 17.1 °F 30.32 in SSW 8.9 mph 11.5 mph 57% 0.00 in 288.0 W/m2
14:09 30.7 °F 17.7 °F 30.31 in South 5.4 mph 9.2 mph 58% 0.00 in 299.0 W/m2
14:14 31.0 °F 17.9 °F 30.30 in South 8.8 mph 11.5 mph 58% 0.00 in 339.0 W/m2
14:19 31.2 °F 18.1 °F 30.30 in SSE 7.7 mph 9.2 mph 58% 0.00 in 346.0 W/m2
14:24 31.6 °F 18.5 °F 30.29 in SSE 6.2 mph 6.2 mph 58% 0.00 in 510.0 W/m2
14:29 30.8 °F 16.9 °F 30.29 in South 6.4 mph 10.4 mph 56% 0.00 in 237.0 W/m2
14:34 31.4 °F 17.9 °F 30.28 in South 7.4 mph 8.1 mph 57% 0.00 in 563.0 W/m2
14:40 31.1 °F 17.6 °F 30.28 in South 7.6 mph 11.5 mph 57% 0.00 in 592.0 W/m2
14:45 31.6 °F 18.1 °F 30.28 in SSE 8.7 mph 12.7 mph 57% 0.00 in 468.0 W/m2
14:50 31.7 °F 18.2 °F 30.28 in South 6.0 mph 8.1 mph 57% 0.00 in 457.0 W/m2
14:55 31.9 °F 18.0 °F 30.28 in SSW 8.7 mph 12.0 mph 56% 0.00 in 431.0 W/m2
15:00 32.0 °F 18.1 °F 30.28 in SSE 9.9 mph 13.2 mph 56% 0.00 in 404.0 W/m2
15:05 31.8 °F 17.9 °F 30.27 in SSE 11.7 mph 15.0 mph 56% 0.00 in 383.0 W/m2
15:10 31.6 °F 17.7 °F 30.26 in South 12.0 mph 12.7 mph 56% 0.00 in 364.0 W/m2
15:15 31.9 °F 18.4 °F 30.26 in SSW 8.7 mph 16.1 mph 57% 0.00 in 364.0 W/m2
15:20 31.7 °F 17.8 °F 30.25 in SSW 16.1 mph 18.0 mph 56% 0.00 in 336.0 W/m2
15:25 31.8 °F 18.3 °F 30.25 in South 13.3 mph 13.3 mph 57% 0.00 in 323.0 W/m2
15:30 32.0 °F 18.9 °F 30.25 in South 9.1 mph 9.2 mph 58% 0.00 in 306.0 W/m2
15:35 32.1 °F 18.6 °F 30.24 in South 10.8 mph 11.5 mph 57% 0.00 in 292.0 W/m2
15:40 32.1 °F 18.6 °F 30.24 in South 9.1 mph 11.5 mph 57% 0.00 in 271.0 W/m2
15:45 32.2 °F 19.1 °F 30.23 in South 9.5 mph 15.0 mph 58% 0.00 in 255.0 W/m2
15:50 32.3 °F 19.2 °F 30.23 in South 8.3 mph 10.8 mph 58% 0.00 in 237.0 W/m2
15:56 32.0 °F 19.3 °F 30.22 in SSE 13.2 mph 15.0 mph 59% 0.00 in 218.0 W/m2
16:01 31.8 °F 19.1 °F 30.22 in SSE 12.6 mph 19.2 mph 59% 0.00 in 149.0 W/m2
16:06 31.6 °F 19.3 °F 30.21 in SSE 11.2 mph 11.5 mph 60% 0.00 in 128.0 W/m2
16:11 31.5 °F 19.6 °F 30.20 in SSE 11.2 mph 16.1 mph 61% 0.00 in 95.0 W/m2
16:16 31.3 °F 19.4 °F 30.19 in SSE 11.1 mph 15.0 mph 61% 0.00 in 70.0 W/m2
16:21 31.3 °F 19.4 °F 30.19 in South 10.3 mph 16.1 mph 61% 0.00 in 84.0 W/m2
16:26 31.3 °F 19.8 °F 30.19 in SSE 11.8 mph 16.1 mph 62% 0.00 in 76.0 W/m2
16:31 31.2 °F 19.7 °F 30.18 in SSE 12.9 mph 12.9 mph 62% 0.00 in 49.0 W/m2
16:36 31.0 °F 19.5 °F 30.18 in South 13.2 mph 23.0 mph 62% 0.00 in 40.0 W/m2
16:41 30.9 °F 19.8 °F 30.18 in SE 13.9 mph 21.9 mph 63% 0.00 in 49.0 W/m2
16:46 30.8 °F 19.7 °F 30.17 in SSE 9.6 mph 24.2 mph 63% 0.00 in 39.0 W/m2
16:51 30.7 °F 20.0 °F 30.17 in SSE 12.6 mph 17.3 mph 64% 0.00 in 28.0 W/m2
16:57 30.7 °F 19.9 °F 30.17 in SSE 14.0 mph 23.0 mph 64% 0.00 in 25.0 W/m2
17:02 30.6 °F 19.9 °F 30.17 in SSE 12.6 mph 12.6 mph 64% 0.00 in 19.0 W/m2
17:07 30.4 °F 19.7 °F 30.17 in South 8.0 mph 15.0 mph 64% 0.00 in 16.0 W/m2
17:12 30.4 °F 19.7 °F 30.17 in SE 9.4 mph 10.8 mph 64% 0.00 in 12.0 W/m2
17:17 30.2 °F 19.8 °F 30.17 in South 6.8 mph 8.1 mph 65% 0.00 in 9.0 W/m2
17:22 30.1 °F 19.7 °F 30.17 in SE 8.3 mph 9.2 mph 65% 0.00 in 7.0 W/m2
17:27 30.0 °F 19.7 °F 30.17 in SSE 7.3 mph 8.4 mph 65% 0.00 in 0.0 W/m2
17:32 29.9 °F 19.6 °F 30.17 in SSE 5.8 mph 8.1 mph 65% 0.00 in 0.0 W/m2
17:37 30.0 °F 19.7 °F 30.17 in South 6.3 mph 9.2 mph 65% 0.00 in 0.0 W/m2
17:43 29.8 °F 19.5 °F 30.16 in South 6.0 mph 6.9 mph 65% 0.00 in 0.0 W/m2
17:48 29.8 °F 19.5 °F 30.16 in South 9.7 mph 15.0 mph 65% 0.00 in 0.0 W/m2
17:53 29.4 °F 19.4 °F 30.16 in SSE 7.0 mph 8.1 mph 66% 0.00 in 0.0 W/m2
17:58 29.3 °F 19.3 °F 30.17 in SSE 6.5 mph 8.1 mph 66% 0.00 in 0.0 W/m2
18:03 29.1 °F 19.2 °F 30.17 in South 5.5 mph 6.9 mph 66% 0.00 in 0.0 W/m2
18:08 28.9 °F 19.3 °F 30.16 in South 3.0 mph 4.8 mph 67% 0.00 in 0.0 W/m2
18:13 28.8 °F 19.2 °F 30.17 in South 3.9 mph 4.6 mph 67% 0.00 in 0.0 W/m2
18:18 28.9 °F 19.3 °F 30.17 in SSE 3.8 mph 6.0 mph 67% 0.00 in 0.0 W/m2
18:23 28.8 °F 19.2 °F 30.16 in SSE 4.1 mph 7.2 mph 67% 0.00 in 0.0 W/m2
18:28 28.9 °F 19.3 °F 30.16 in South 4.9 mph 5.8 mph 67% 0.00 in 0.0 W/m2
18:33 28.6 °F 19.4 °F 30.16 in South 2.9 mph 4.8 mph 68% 0.00 in 0.0 W/m2
18:38 28.8 °F 19.6 °F 30.16 in SSW 6.5 mph 9.6 mph 68% 0.00 in 0.0 W/m2
18:43 28.6 °F 19.4 °F 30.16 in South 8.4 mph 8.4 mph 68% 0.00 in 0.0 W/m2
18:49 28.6 °F 19.7 °F 30.16 in SSW 9.1 mph 11.5 mph 69% 0.00 in 0.0 W/m2
18:54 28.3 °F 19.4 °F 30.16 in SSW 6.0 mph 8.1 mph 69% 0.00 in 0.0 W/m2
18:59 28.5 °F 19.6 °F 30.16 in South 6.5 mph 9.2 mph 69% 0.00 in 0.0 W/m2
19:04 28.6 °F 19.7 °F 30.16 in South 11.5 mph 12.7 mph 69% 0.00 in 0.0 W/m2
19:09 28.5 °F 19.6 °F 30.16 in SSW 8.5 mph 11.5 mph 69% 0.00 in 0.0 W/m2
19:14 28.5 °F 20.0 °F 30.16 in South 11.8 mph 12.7 mph 70% 0.00 in 0.0 W/m2
19:19 28.2 °F 19.7 °F 30.15 in SSW 9.1 mph 11.5 mph 70% 0.00 in 0.0 W/m2
19:24 28.0 °F 19.5 °F 30.15 in South 7.7 mph 10.4 mph 70% 0.00 in 0.0 W/m2
19:29 28.3 °F 20.1 °F 30.16 in South 8.8 mph 11.5 mph 71% 0.00 in 0.0 W/m2
19:34 28.2 °F 19.7 °F 30.16 in SSW 9.3 mph 9.6 mph 70% 0.00 in 0.0 W/m2
19:39 27.8 °F 19.6 °F 30.16 in SSW 7.2 mph 9.2 mph 71% 0.00 in 0.0 W/m2
19:45 28.0 °F 19.8 °F 30.16 in South 7.3 mph 15.0 mph 71% 0.00 in 0.0 W/m2
19:50 28.0 °F 19.8 °F 30.17 in South 10.5 mph 11.5 mph 71% 0.00 in 0.0 W/m2
19:55 27.5 °F 19.7 °F 30.16 in South 7.1 mph 9.2 mph 72% 0.00 in 0.0 W/m2
20:00 27.5 °F 19.7 °F 30.16 in South 6.6 mph 10.4 mph 72% 0.00 in 0.0 W/m2
20:05 27.4 °F 19.9 °F 30.16 in South 5.1 mph 6.0 mph 73% 0.00 in 0.0 W/m2
20:10 27.2 °F 19.7 °F 30.16 in South 6.5 mph 9.2 mph 73% 0.00 in 0.0 W/m2
20:15 27.1 °F 19.6 °F 30.16 in SSW 9.0 mph 12.0 mph 73% 0.00 in 0.0 W/m2
20:20 27.1 °F 19.6 °F 30.15 in SSW 6.9 mph 9.2 mph 73% 0.00 in 0.0 W/m2
20:25 26.9 °F 19.7 °F 30.16 in South 5.7 mph 6.9 mph 74% 0.00 in 0.0 W/m2
20:30 27.0 °F 19.8 °F 30.16 in South 5.7 mph 9.2 mph 74% 0.00 in 0.0 W/m2
20:35 26.7 °F 19.8 °F 30.15 in South 5.7 mph 6.9 mph 75% 0.00 in 0.0 W/m2
20:40 26.7 °F 19.8 °F 30.15 in South 4.3 mph 6.9 mph 75% 0.00 in 0.0 W/m2
20:46 26.8 °F 19.9 °F 30.15 in SSW 6.2 mph 8.4 mph 75% 0.00 in 0.0 W/m2
20:51 26.7 °F 19.8 °F 30.15 in SSW 8.6 mph 11.5 mph 75% 0.00 in 0.0 W/m2
20:56 26.6 °F 19.7 °F 30.15 in SSW 6.6 mph 6.9 mph 75% 0.00 in 0.0 W/m2
21:01 26.5 °F 19.6 °F 30.15 in SSW 8.6 mph 8.6 mph 75% 0.00 in 0.0 W/m2
21:06 26.3 °F 19.8 °F 30.15 in SSW 6.7 mph 8.1 mph 76% 0.00 in 0.0 W/m2
21:11 26.1 °F 19.9 °F 30.15 in South 4.6 mph 7.2 mph 77% 0.00 in 0.0 W/m2
21:16 26.1 °F 19.9 °F 30.14 in SW 5.2 mph 6.9 mph 77% 0.00 in 0.0 W/m2
21:21 25.9 °F 19.7 °F 30.14 in SSE 3.7 mph 7.2 mph 77% 0.00 in 0.0 W/m2
21:26 26.0 °F 19.8 °F 30.14 in SSW 3.3 mph 4.8 mph 77% 0.00 in 0.0 W/m2
21:31 25.8 °F 19.6 °F 30.14 in South 4.9 mph 6.0 mph 77% 0.00 in 0.0 W/m2
21:36 26.0 °F 19.8 °F 30.14 in South 6.7 mph 6.9 mph 77% 0.00 in 0.0 W/m2
21:41 25.8 °F 19.6 °F 30.14 in SSW 3.9 mph 8.1 mph 77% 0.00 in 0.0 W/m2
21:47 26.0 °F 20.1 °F 30.13 in South 7.0 mph 8.0 mph 78% 0.00 in 0.0 W/m2
21:52 25.8 °F 19.9 °F 30.13 in South 6.0 mph 8.0 mph 78% 0.00 in 0.0 W/m2
21:57 25.8 °F 19.9 °F 30.13 in South 3.0 mph 10.0 mph 78% 0.00 in 0.0 W/m2
22:02 25.6 °F 19.7 °F 30.13 in SSW 5.0 mph 7.2 mph 78% 0.00 in 0.0 W/m2
22:07 25.6 °F 20.0 °F 30.12 in SSW 6.7 mph 9.2 mph 79% 0.00 in 0.0 W/m2
22:12 25.6 °F 20.0 °F 30.12 in South 7.4 mph 9.6 mph 79% 0.00 in 0.0 W/m2
22:17 25.4 °F 19.8 °F 30.11 in South 7.1 mph 8.1 mph 79% 0.00 in 0.0 W/m2
22:22 25.3 °F 19.7 °F 30.11 in South 5.5 mph 6.9 mph 79% 0.00 in 0.0 W/m2
22:27 25.5 °F 20.2 °F 30.11 in South 7.9 mph 10.4 mph 80% 0.00 in 0.0 W/m2
22:32 25.5 °F 19.9 °F 30.11 in SSW 6.3 mph 6.9 mph 79% 0.00 in 0.0 W/m2
22:37 25.4 °F 19.8 °F 30.11 in South 6.0 mph 6.0 mph 79% 0.00 in 0.0 W/m2
22:42 25.4 °F 20.1 °F 30.10 in SSW 6.2 mph 8.1 mph 80% 0.00 in 0.0 W/m2
22:47 25.4 °F 20.1 °F 30.10 in SSW 1.8 mph 3.5 mph 80% 0.00 in 0.0 W/m2
22:53 25.1 °F 19.8 °F 30.10 in South 1.8 mph 4.6 mph 80% 0.00 in 0.0 W/m2
22:58 25.4 °F 20.1 °F 30.10 in South 6.5 mph 9.6 mph 80% 0.00 in 0.0 W/m2
23:03 25.5 °F 20.2 °F 30.10 in SSE 4.8 mph 6.9 mph 80% 0.00 in 0.0 W/m2
23:08 25.6 °F 20.3 °F 30.10 in South 3.5 mph 5.8 mph 80% 0.00 in 0.0 W/m2
23:13 25.5 °F 20.5 °F 30.10 in SSW 5.8 mph 9.2 mph 81% 0.00 in 0.0 W/m2
23:18 25.6 °F 20.6 °F 30.10 in South 4.9 mph 6.0 mph 81% 0.00 in 0.0 W/m2
23:23 25.6 °F 20.6 °F 30.10 in South 2.1 mph 4.6 mph 81% 0.00 in 0.0 W/m2
23:28 25.7 °F 20.7 °F 30.10 in South 2.1 mph 3.5 mph 81% 0.00 in 0.0 W/m2
23:33 25.6 °F 20.6 °F 30.10 in South 0.6 mph 2.3 mph 81% 0.00 in 0.0 W/m2
23:38 25.4 °F 20.4 °F 30.09 in South 1.5 mph 2.4 mph 81% 0.00 in 0.0 W/m2
23:43 25.2 °F 20.2 °F 30.09 in South 1.4 mph 2.3 mph 81% 0.00 in 0.0 W/m2
23:48 24.8 °F 19.8 °F 30.09 in South 0.4 mph 1.2 mph 81% 0.00 in 0.0 W/m2
23:53 24.6 °F 19.9 °F 30.09 in South 0.1 mph 1.2 mph 82% 0.00 in 0.0 W/m2
23:58 24.2 °F 19.5 °F 30.09 in South 1.2 mph 1.2 mph 82% 0.00 in 0.0 W/m2
Soleil - Laurel Canyon
Compliments of Weather Underground - 3.25 mb